createdAt,value
2023-06-20T00:02:03.245Z,22.75
2023-06-20T00:05:06.377Z,22.81
2023-06-20T00:08:09.581Z,22.81
2023-06-20T00:11:12.312Z,22.91
2023-06-20T00:14:16.395Z,22.87
2023-06-20T00:17:19.155Z,22.90
2023-06-20T00:20:22.034Z,22.96
2023-06-20T00:23:26.212Z,22.95
2023-06-20T00:26:29.015Z,22.90
2023-06-20T00:29:33.182Z,22.89
2023-06-20T00:32:35.998Z,22.88
2023-06-20T00:35:39.148Z,22.85
2023-06-20T00:38:41.849Z,22.77
2023-06-20T00:41:44.588Z,22.72
2023-06-20T00:44:50.883Z,22.77
2023-06-20T00:47:54.789Z,22.72
2023-06-20T00:50:58.604Z,22.70
2023-06-20T00:54:08.037Z,22.77
2023-06-20T00:57:11.553Z,22.83
2023-06-20T01:00:19.300Z,22.86
2023-06-20T01:03:23.630Z,22.89
2023-06-20T01:06:36.320Z,22.93
2023-06-20T01:09:47.951Z,22.96
2023-06-20T01:12:55.722Z,22.83
2023-06-20T01:16:07.610Z,22.76
2023-06-20T01:19:21.838Z,22.73
2023-06-20T01:22:45.390Z,22.68
2023-06-20T01:25:56.843Z,22.68
2023-06-20T01:29:04.283Z,22.65
2023-06-20T01:32:13.426Z,22.67
2023-06-20T01:35:23.948Z,22.63
2023-06-20T01:38:31.666Z,22.55
2023-06-20T01:41:38.854Z,22.21
2023-06-20T01:44:42.798Z,22.07
2023-06-20T01:47:48.492Z,22.00
2023-06-20T01:50:57.058Z,21.98
2023-06-20T01:54:04.697Z,22.00
2023-06-20T01:57:08.859Z,21.84
2023-06-20T02:00:13.766Z,21.85
2023-06-20T02:03:18.804Z,21.86
2023-06-20T02:06:22.509Z,21.91
2023-06-20T02:09:27.024Z,21.94
2023-06-20T02:12:30.562Z,21.89
2023-06-20T02:15:35.629Z,21.82
2023-06-20T02:18:38.355Z,21.72
2023-06-20T02:21:44.211Z,21.51
2023-06-20T02:24:52.988Z,21.25
2023-06-20T02:27:57.276Z,21.31
2023-06-20T02:31:01.126Z,21.30
2023-06-20T02:34:10.801Z,21.21
2023-06-20T02:37:16.271Z,21.10
2023-06-20T02:40:25.771Z,20.88
2023-06-20T02:43:30.753Z,21.02
2023-06-20T02:46:38.701Z,20.97
2023-06-20T02:49:47.710Z,20.86
2023-06-20T02:53:02.071Z,20.88
2023-06-20T02:56:12.398Z,20.89
2023-06-20T02:59:17.158Z,20.88
2023-06-20T03:02:21.289Z,20.89
2023-06-20T03:05:25.903Z,20.81
2023-06-20T03:08:31.421Z,20.82
2023-06-20T03:11:35.801Z,20.70
2023-06-20T03:14:38.500Z,20.72
2023-06-20T03:17:41.295Z,20.74
2023-06-20T03:20:44.987Z,20.63
2023-06-20T03:23:51.500Z,20.56
2023-06-20T03:26:55.566Z,20.59
2023-06-20T03:30:02.252Z,20.66
2023-06-20T03:33:07.148Z,20.67
2023-06-20T03:36:11.302Z,20.60
2023-06-20T03:39:15.248Z,20.50
2023-06-20T03:42:19.346Z,20.52
2023-06-20T03:45:22.096Z,20.55
2023-06-20T03:48:24.826Z,20.41
2023-06-20T03:51:27.552Z,20.41
2023-06-20T03:54:30.260Z,20.49
2023-06-20T03:57:34.322Z,20.45
2023-06-20T04:00:37.104Z,20.45
2023-06-20T04:03:40.328Z,20.59
2023-06-20T04:06:43.035Z,20.44
2023-06-20T04:09:53.523Z,20.31
2023-06-20T04:12:57.629Z,20.29
2023-06-20T04:16:01.994Z,20.34
2023-06-20T04:19:07.502Z,20.41
2023-06-20T04:22:10.611Z,20.42
2023-06-20T04:25:13.832Z,20.51
2023-06-20T04:28:18.812Z,20.59
2023-06-20T04:31:21.792Z,20.59
2023-06-20T04:34:28.782Z,20.65
2023-06-20T04:37:34.573Z,20.72
2023-06-20T04:40:37.337Z,20.96
2023-06-20T04:43:46.053Z,20.94
2023-06-20T04:46:51.214Z,20.91
2023-06-20T04:49:53.966Z,20.89
2023-06-20T04:52:56.708Z,20.86
2023-06-20T04:55:59.666Z,20.91
2023-06-20T04:59:03.732Z,21.55
2023-06-20T05:02:07.578Z,21.96
2023-06-20T05:05:10.681Z,22.03
2023-06-20T05:08:21.171Z,22.09
2023-06-20T05:11:23.991Z,22.37
2023-06-20T05:14:30.548Z,22.20
2023-06-20T05:17:33.333Z,22.57
2023-06-20T05:20:36.071Z,23.01
2023-06-20T05:23:38.821Z,23.26
2023-06-20T05:26:41.733Z,23.57
2023-06-20T05:29:46.916Z,23.86
2023-06-20T05:32:53.904Z,24.28
2023-06-20T05:35:58.746Z,24.84
2023-06-20T05:39:02.073Z,25.11
2023-06-20T05:42:05.453Z,25.27
2023-06-20T05:45:10.590Z,25.45
2023-06-20T05:48:13.384Z,25.69
2023-06-20T05:51:16.607Z,25.99
2023-06-20T05:54:19.433Z,26.20
2023-06-20T05:57:22.179Z,26.43
2023-06-20T06:00:26.730Z,26.60
2023-06-20T06:03:31.220Z,26.57
2023-06-20T06:06:34.039Z,26.68
2023-06-20T06:09:36.756Z,26.84
2023-06-20T06:12:41.790Z,27.13
2023-06-20T06:15:59.193Z,27.33
2023-06-20T06:19:03.651Z,27.45
2023-06-20T06:22:07.747Z,27.80
2023-06-20T06:25:11.117Z,27.84
2023-06-20T06:28:13.916Z,27.79
2023-06-20T06:31:28.398Z,28.05
2023-06-20T06:34:31.239Z,27.98
2023-06-20T06:37:34.691Z,28.00
2023-06-20T06:40:40.590Z,28.13
2023-06-20T06:43:43.438Z,28.15
2023-06-20T06:46:47.591Z,27.76
2023-06-20T06:49:50.354Z,27.83
2023-06-20T06:52:53.132Z,27.43
2023-06-20T06:55:56.008Z,27.27
2023-06-20T06:59:02.426Z,27.30
2023-06-20T07:02:07.323Z,27.41
2023-06-20T07:05:10.492Z,27.50
2023-06-20T07:08:13.326Z,27.92
2023-06-20T07:11:16.239Z,28.17
2023-06-20T07:14:27.552Z,27.91
2023-06-20T07:17:31.762Z,27.72
2023-06-20T07:20:34.782Z,27.60
2023-06-20T07:23:37.629Z,27.48
2023-06-20T07:26:40.454Z,27.64
2023-06-20T07:29:43.238Z,27.78
2023-06-20T07:32:49.421Z,27.93
2023-06-20T07:35:52.289Z,28.12
2023-06-20T07:38:55.235Z,28.03
2023-06-20T07:41:58.021Z,28.04
2023-06-20T07:45:00.837Z,28.04
2023-06-20T07:48:05.268Z,28.04
2023-06-20T07:51:08.068Z,28.19
2023-06-20T07:54:10.800Z,28.29
2023-06-20T07:57:13.497Z,28.40
2023-06-20T08:00:20.264Z,28.39
2023-06-20T08:03:26.221Z,28.24
2023-06-20T08:06:31.342Z,28.02
2023-06-20T08:09:34.040Z,27.85
2023-06-20T08:12:36.936Z,27.77
2023-06-20T08:15:39.689Z,27.88
2023-06-20T08:18:43.947Z,27.79
2023-06-20T08:21:54.044Z,27.78
2023-06-20T08:24:56.914Z,27.44
2023-06-20T08:28:13.778Z,27.14
2023-06-20T08:31:17.669Z,26.99
2023-06-20T08:34:21.951Z,27.01
2023-06-20T08:37:24.937Z,27.14
2023-06-20T08:40:29.832Z,27.17
2023-06-20T08:43:36.394Z,27.04
2023-06-20T08:46:40.490Z,27.18
2023-06-20T08:49:53.673Z,27.19
2023-06-20T08:53:02.018Z,27.37
2023-06-20T08:56:05.438Z,27.54
2023-06-20T08:59:10.600Z,27.52
2023-06-20T09:02:17.088Z,27.65
2023-06-20T09:05:24.348Z,27.64
2023-06-20T09:08:36.113Z,27.61
2023-06-20T09:11:38.998Z,27.69
2023-06-20T09:14:42.513Z,27.93
2023-06-20T09:17:52.282Z,28.02
2023-06-20T09:21:04.703Z,28.04
2023-06-20T09:24:09.120Z,28.04
2023-06-20T09:27:11.863Z,28.07
2023-06-20T09:30:16.132Z,28.16
2023-06-20T09:33:19.166Z,28.37
2023-06-20T09:36:23.584Z,28.60
2023-06-20T09:39:26.286Z,28.82
2023-06-20T09:42:29.759Z,28.99
2023-06-20T09:45:32.489Z,29.15
2023-06-20T09:48:37.903Z,29.19
2023-06-20T09:51:46.589Z,29.32
2023-06-20T09:54:57.418Z,29.45
2023-06-20T09:58:07.495Z,29.64
2023-06-20T10:01:14.624Z,29.65
2023-06-20T10:04:18.735Z,29.56
2023-06-20T10:07:24.025Z,29.71
2023-06-20T10:10:26.962Z,29.85
2023-06-20T10:13:32.555Z,30.08
2023-06-20T10:16:35.641Z,30.24
2023-06-20T10:19:49.300Z,30.30
2023-06-20T10:23:11.608Z,30.53
2023-06-20T10:26:14.349Z,30.66
2023-06-20T10:29:17.124Z,30.85
2023-06-20T10:32:19.826Z,30.98
2023-06-20T10:35:24.495Z,30.95
2023-06-20T10:38:29.718Z,30.86
2023-06-20T10:41:35.050Z,30.99
2023-06-20T10:44:37.795Z,31.08
2023-06-20T10:47:40.672Z,31.15
2023-06-20T10:50:43.622Z,31.25
2023-06-20T10:53:48.008Z,31.32
2023-06-20T10:56:53.936Z,31.36
2023-06-20T10:59:57.067Z,31.38
2023-06-20T11:02:59.906Z,31.45
2023-06-20T11:06:03.114Z,31.56
2023-06-20T11:09:17.221Z,31.65
2023-06-20T11:12:21.536Z,31.71
2023-06-20T11:15:29.654Z,31.79
2023-06-20T11:18:32.413Z,31.74
2023-06-20T11:21:35.679Z,31.65
2023-06-20T11:24:43.836Z,31.65
2023-06-20T11:27:46.525Z,31.70
2023-06-20T11:30:49.302Z,31.76
2023-06-20T11:34:03.634Z,31.74
2023-06-20T11:37:07.300Z,31.84
2023-06-20T11:40:14.713Z,31.87
2023-06-20T11:43:24.929Z,31.86
2023-06-20T11:46:28.118Z,31.92
2023-06-20T11:49:31.621Z,31.98
2023-06-20T11:52:34.400Z,32.08
2023-06-20T11:55:49.098Z,32.11
2023-06-20T11:58:51.811Z,32.22
2023-06-20T12:01:54.675Z,32.33
2023-06-20T12:04:58.700Z,32.43
2023-06-20T12:08:02.017Z,32.50
2023-06-20T12:11:07.066Z,32.59
2023-06-20T12:14:09.840Z,32.66
2023-06-20T12:17:12.566Z,32.79
2023-06-20T12:20:32.793Z,32.90
2023-06-20T12:23:37.353Z,32.90
2023-06-20T12:26:43.353Z,32.86
2023-06-20T12:29:46.993Z,32.94
2023-06-20T12:32:49.814Z,33.00
2023-06-20T12:35:52.866Z,33.18
2023-06-20T12:38:55.575Z,33.29
2023-06-20T12:41:59.733Z,33.33
2023-06-20T12:45:03.231Z,33.42
2023-06-20T12:48:06.475Z,33.60
2023-06-20T12:51:09.443Z,33.65
2023-06-20T12:54:12.998Z,33.48
2023-06-20T12:57:19.429Z,33.43
2023-06-20T13:00:22.510Z,33.54
2023-06-20T13:03:25.488Z,33.67
2023-06-20T13:06:28.861Z,33.78
2023-06-20T13:09:31.751Z,33.85
2023-06-20T13:12:36.541Z,33.78
2023-06-20T13:15:39.636Z,33.75
2023-06-20T13:18:42.383Z,33.70
2023-06-20T13:21:45.107Z,33.57
2023-06-20T13:24:49.189Z,33.51
2023-06-20T13:27:55.958Z,33.57
2023-06-20T13:30:59.185Z,33.59
2023-06-20T13:34:02.070Z,33.62
2023-06-20T13:37:05.646Z,33.59
2023-06-20T13:40:10.444Z,33.61
2023-06-20T13:43:14.592Z,33.76
2023-06-20T13:46:17.348Z,33.94
2023-06-20T13:49:20.504Z,34.04
2023-06-20T13:52:24.403Z,34.14
2023-06-20T13:55:31.841Z,34.22
2023-06-20T13:58:36.115Z,34.31
2023-06-20T14:01:41.000Z,34.31
2023-06-20T14:04:44.944Z,34.21
2023-06-20T14:07:48.552Z,34.10
2023-06-20T14:10:51.546Z,33.92
2023-06-20T14:13:55.630Z,33.70
2023-06-20T14:16:58.867Z,33.66
2023-06-20T14:20:01.997Z,33.83
2023-06-20T14:23:05.003Z,33.98
2023-06-20T14:26:07.732Z,34.12
2023-06-20T14:29:11.990Z,34.26
2023-06-20T14:32:14.800Z,34.44
2023-06-20T14:35:17.571Z,34.55
2023-06-20T14:38:20.422Z,34.58
2023-06-20T14:41:23.748Z,34.47
2023-06-20T14:44:28.914Z,34.29
2023-06-20T14:47:31.850Z,34.15
2023-06-20T14:50:47.638Z,34.14
2023-06-20T14:53:51.531Z,34.32
2023-06-20T14:56:54.265Z,34.61
2023-06-20T14:59:58.358Z,34.78
2023-06-20T15:03:01.297Z,34.84
2023-06-20T15:06:07.224Z,34.87
2023-06-20T15:09:09.981Z,34.69
2023-06-20T15:12:14.128Z,34.50
2023-06-20T15:15:18.280Z,34.30
2023-06-20T15:18:21.170Z,34.27
2023-06-20T15:21:23.965Z,34.40
2023-06-20T15:24:26.822Z,34.53
2023-06-20T15:27:29.569Z,34.57
2023-06-20T15:30:34.258Z,34.57
2023-06-20T15:33:37.009Z,34.51
2023-06-20T15:36:39.765Z,34.46
2023-06-20T15:39:42.661Z,34.41
2023-06-20T15:42:45.546Z,34.30
2023-06-20T15:45:49.894Z,34.08
2023-06-20T15:48:58.616Z,33.86
2023-06-20T15:52:02.130Z,33.95
2023-06-20T15:55:05.377Z,33.94
2023-06-20T15:58:08.744Z,33.94
2023-06-20T16:01:13.642Z,33.92
2023-06-20T16:04:18.429Z,33.95
2023-06-20T16:07:23.814Z,33.87
2023-06-20T16:10:26.924Z,34.00
2023-06-20T16:13:30.981Z,34.01
2023-06-20T16:16:35.132Z,33.99
2023-06-20T16:19:38.175Z,33.91
2023-06-20T16:22:41.176Z,33.86
2023-06-20T16:25:44.107Z,33.78
2023-06-20T16:28:46.836Z,33.81
2023-06-20T16:31:50.907Z,33.94
2023-06-20T16:34:53.668Z,33.97
2023-06-20T16:37:59.475Z,34.03
2023-06-20T16:41:04.123Z,34.03
2023-06-20T16:44:06.840Z,34.03
2023-06-20T16:47:11.284Z,33.87
2023-06-20T16:50:14.092Z,33.80
2023-06-20T16:53:16.849Z,33.73
2023-06-20T16:56:21.658Z,33.66
2023-06-20T16:59:25.824Z,33.60
2023-06-20T17:02:30.392Z,33.53
2023-06-20T17:05:36.509Z,33.54
2023-06-20T17:08:39.255Z,33.52
2023-06-20T17:11:42.052Z,33.32
2023-06-20T17:14:45.971Z,33.14
2023-06-20T17:17:50.309Z,32.89
2023-06-20T17:20:53.144Z,32.83
2023-06-20T17:23:57.859Z,32.72
2023-06-20T17:27:00.649Z,32.64
2023-06-20T17:30:03.766Z,32.56
2023-06-20T17:33:08.041Z,32.35
2023-06-20T17:36:10.893Z,32.14
2023-06-20T17:39:13.608Z,31.90
2023-06-20T17:42:16.383Z,31.65
2023-06-20T17:45:19.263Z,31.54
2023-06-20T17:48:23.377Z,31.37
2023-06-20T17:51:26.091Z,31.28
2023-06-20T17:54:29.537Z,31.18
2023-06-20T17:57:36.072Z,31.02
2023-06-20T18:00:48.447Z,30.86
2023-06-20T18:03:52.876Z,30.76
2023-06-20T18:06:55.822Z,30.69
2023-06-20T18:09:58.646Z,30.70
2023-06-20T18:13:02.196Z,30.58
2023-06-20T18:16:05.431Z,30.44
2023-06-20T18:19:09.649Z,30.33
2023-06-20T18:22:12.874Z,30.23
2023-06-20T18:25:15.671Z,30.15
2023-06-20T18:28:18.947Z,30.28
2023-06-20T18:31:21.787Z,30.21
2023-06-20T18:34:26.022Z,30.23
2023-06-20T18:37:30.584Z,30.20
2023-06-20T18:40:33.386Z,30.24
2023-06-20T18:43:36.292Z,30.29
2023-06-20T18:46:39.044Z,30.35
2023-06-20T18:49:43.370Z,30.42
2023-06-20T18:52:46.749Z,30.29
2023-06-20T18:55:50.484Z,30.18
2023-06-20T18:58:56.483Z,30.06
2023-06-20T19:01:59.267Z,30.04
2023-06-20T19:05:04.178Z,30.02
2023-06-20T19:08:07.755Z,30.00
2023-06-20T19:11:10.683Z,29.98
2023-06-20T19:14:13.501Z,29.81
2023-06-20T19:17:16.177Z,29.82
2023-06-20T19:20:20.727Z,29.74
2023-06-20T19:23:23.466Z,29.51
2023-06-20T19:26:26.402Z,29.42
2023-06-20T19:29:29.138Z,29.40
2023-06-20T19:32:32.161Z,29.45
2023-06-20T19:35:36.252Z,29.34
2023-06-20T19:38:38.987Z,29.26
2023-06-20T19:41:41.737Z,29.21
2023-06-20T19:44:44.530Z,29.10
2023-06-20T19:47:47.305Z,29.12
2023-06-20T19:50:51.483Z,29.02
2023-06-20T19:53:54.361Z,28.81
2023-06-20T19:56:57.086Z,28.82
2023-06-20T19:59:59.982Z,28.74
2023-06-20T20:03:07.707Z,28.47
2023-06-20T20:06:13.868Z,28.07
2023-06-20T20:09:17.086Z,27.77
2023-06-20T20:12:20.057Z,27.02
2023-06-20T20:15:23.205Z,25.91
2023-06-20T20:18:29.374Z,24.52
2023-06-20T20:21:33.823Z,23.52
2023-06-20T20:24:36.659Z,22.96
2023-06-20T20:27:41.506Z,22.88
2023-06-20T20:30:44.696Z,22.95
2023-06-20T20:33:47.885Z,22.93
2023-06-20T20:36:54.402Z,22.93
2023-06-20T20:39:58.641Z,22.92
2023-06-20T20:43:01.476Z,22.93
2023-06-20T20:46:04.849Z,23.03
2023-06-20T20:49:07.710Z,23.07
2023-06-20T20:52:12.475Z,23.34
2023-06-20T20:55:15.831Z,22.95
2023-06-20T20:58:18.541Z,22.77
2023-06-20T21:01:21.433Z,22.80
2023-06-20T21:04:24.242Z,22.83
2023-06-20T21:07:28.396Z,22.90
2023-06-20T21:10:31.600Z,22.91
2023-06-20T21:13:34.470Z,22.81
2023-06-20T21:16:37.282Z,22.77
2023-06-20T21:19:40.039Z,22.72
2023-06-20T21:22:44.283Z,22.73
2023-06-20T21:25:49.644Z,22.73
2023-06-20T21:28:52.469Z,22.71
2023-06-20T21:31:58.294Z,22.70
2023-06-20T21:35:02.025Z,22.69
2023-06-20T21:38:06.244Z,22.56
2023-06-20T21:41:08.987Z,22.55
2023-06-20T21:44:11.718Z,22.56
2023-06-20T21:47:14.589Z,22.64
2023-06-20T21:50:24.341Z,22.38
2023-06-20T21:53:29.319Z,22.17
2023-06-20T21:56:32.106Z,21.85
2023-06-20T21:59:36.130Z,21.85
2023-06-20T22:02:39.054Z,21.80
2023-06-20T22:05:41.824Z,21.78
2023-06-20T22:08:45.900Z,21.67
2023-06-20T22:11:48.684Z,21.66
2023-06-20T22:14:53.055Z,21.61
2023-06-20T22:17:55.872Z,21.45
2023-06-20T22:20:58.724Z,21.40
2023-06-20T22:24:03.500Z,21.46
2023-06-20T22:27:06.796Z,21.49
2023-06-20T22:30:12.088Z,21.45
2023-06-20T22:33:14.828Z,21.39
2023-06-20T22:36:19.821Z,21.39
2023-06-20T22:39:24.405Z,21.31
2023-06-20T22:42:27.894Z,21.35
2023-06-20T22:45:30.639Z,21.42
2023-06-20T22:48:33.759Z,21.48
2023-06-20T22:51:36.755Z,21.42
2023-06-20T22:54:41.090Z,21.28
2023-06-20T22:57:43.820Z,21.25
2023-06-20T23:00:46.539Z,21.11
2023-06-20T23:03:49.840Z,21.06
2023-06-20T23:06:54.948Z,21.05
2023-06-20T23:09:59.031Z,21.12
2023-06-20T23:13:02.056Z,21.17
2023-06-20T23:16:05.040Z,21.22
2023-06-20T23:19:09.229Z,21.29
2023-06-20T23:22:12.003Z,21.26
2023-06-20T23:25:16.046Z,21.22
2023-06-20T23:28:19.658Z,21.23
2023-06-20T23:31:25.460Z,21.24
2023-06-20T23:34:30.653Z,21.26
2023-06-20T23:37:33.596Z,21.23
2023-06-20T23:40:37.628Z,21.25
2023-06-20T23:43:44.642Z,21.24
2023-06-20T23:46:47.850Z,21.22
2023-06-20T23:50:01.276Z,21.23
2023-06-20T23:53:04.446Z,21.22
2023-06-20T23:56:08.749Z,21.18
2023-06-20T23:59:11.975Z,21.15
